Time,TemperatureF,DewpointF,PressureIn,WindDirection,WindDirectionDegrees,WindSpeedMPH,WindSpeedGustMPH,Humidity,HourlyPrecipIn,Conditions,Clouds,dailyrainin,SoftwareType,DateUTC
2013-09-02 00:11:00,73.0,65.0,-100.00,North,352,-999.0,0.0,77,-99.99,,,-99.99,,2013-09-02 07:11:00,
2013-09-02 00:21:00,73.0,65.0,-100.00,North,352,-999.0,0.0,77,-99.99,,,-99.99,,2013-09-02 07:21:00,
2013-09-02 00:42:00,73.0,66.0,-100.00,North,352,-999.0,0.0,78,-99.99,,,-99.99,,2013-09-02 07:42:00,
2013-09-02 00:52:00,73.0,66.0,-100.00,North,352,-999.0,0.0,78,-99.99,,,-99.99,,2013-09-02 07:52:00,
2013-09-02 01:11:00,72.0,66.0,-100.00,North,352,-999.0,0.0,81,-99.99,,,-99.99,,2013-09-02 08:11:00,
2013-09-02 01:22:00,72.0,66.0,-100.00,North,352,-999.0,0.0,81,-99.99,,,-99.99,,2013-09-02 08:22:00,
2013-09-02 01:42:00,71.0,65.0,-100.00,North,352,-999.0,0.0,82,-99.99,,,-99.99,,2013-09-02 08:42:00,
2013-09-02 01:52:00,71.0,65.0,-100.00,North,352,-999.0,0.0,82,-99.99,,,-99.99,,2013-09-02 08:52:00,
2013-09-02 02:12:00,71.0,66.0,-100.00,North,352,-999.0,0.0,83,-99.99,,,-99.99,,2013-09-02 09:12:00,
2013-09-02 02:22:00,71.0,66.0,-100.00,North,352,-999.0,0.0,83,-99.99,,,-99.99,,2013-09-02 09:22:00,
2013-09-02 02:43:00,71.0,66.0,-100.00,North,352,-999.0,0.0,83,-99.99,,,-99.99,,2013-09-02 09:43:00,
2013-09-02 02:53:00,71.0,66.0,-100.00,North,352,-999.0,0.0,83,-99.99,,,-99.99,,2013-09-02 09:53:00,
2013-09-02 03:13:00,71.0,65.0,-100.00,North,352,-999.0,0.0,82,-99.99,,,-99.99,,2013-09-02 10:13:00,
2013-09-02 03:22:00,71.0,65.0,-100.00,North,352,-999.0,0.0,82,-99.99,,,-99.99,,2013-09-02 10:22:00,
2013-09-02 03:42:00,71.0,66.0,-100.00,North,10,-999.0,-999.0,83,-99.99,,,-99.99,,2013-09-02 10:42:00,
2013-09-02 03:53:00,71.0,66.0,-100.00,North,10,-999.0,-999.0,83,-99.99,,,-99.99,,2013-09-02 10:53:00,
2013-09-02 04:11:00,71.0,66.0,-100.00,North,11,-999.0,-999.0,84,-99.99,,,-99.99,,2013-09-02 11:11:00,
2013-09-02 04:22:00,71.0,66.0,-100.00,North,11,-999.0,0.0,84,-99.99,,,-99.99,,2013-09-02 11:22:00,
2013-09-02 04:42:00,70.0,66.0,-100.00,North,11,-999.0,0.0,87,-99.99,,,-99.99,,2013-09-02 11:42:00,
2013-09-02 04:52:00,70.0,66.0,-100.00,North,11,-999.0,0.0,87,-99.99,,,-99.99,,2013-09-02 11:52:00,
2013-09-02 05:12:00,69.0,65.0,-100.00,North,11,-999.0,1.0,87,-99.99,,,-99.99,,2013-09-02 12:12:00,
2013-09-02 05:21:00,69.0,65.0,-100.00,North,11,-999.0,1.0,87,-99.99,,,-99.99,,2013-09-02 12:21:00,
2013-09-02 05:43:00,69.0,66.0,-100.00,North,11,-999.0,0.0,89,-99.99,,,-99.99,,2013-09-02 12:43:00,
2013-09-02 05:52:00,69.0,66.0,-100.00,North,11,-999.0,0.0,89,-99.99,,,-99.99,,2013-09-02 12:52:00,
2013-09-02 06:11:00,70.0,66.0,-100.00,North,11,-999.0,0.0,86,-99.99,,,-99.99,,2013-09-02 13:11:00,
2013-09-02 06:21:00,70.0,66.0,-100.00,North,11,-999.0,0.0,86,-99.99,,,-99.99,,2013-09-02 13:21:00,
2013-09-02 06:42:00,69.0,65.0,-100.00,North,11,-999.0,1.0,86,-99.99,,,-99.99,,2013-09-02 13:42:00,
2013-09-02 06:52:00,69.0,65.0,-100.00,North,11,-999.0,1.0,86,-99.99,,,-99.99,,2013-09-02 13:52:00,
2013-09-02 07:11:00,69.0,65.0,-100.00,North,11,-999.0,0.0,87,-99.99,,,-99.99,,2013-09-02 14:11:00,
2013-09-02 07:22:00,69.0,65.0,-100.00,North,11,-999.0,0.0,87,-99.99,,,-99.99,,2013-09-02 14:22:00,
2013-09-02 07:43:00,69.0,65.0,-100.00,North,10,-999.0,0.0,86,-99.99,,,-99.99,,2013-09-02 14:43:00,
2013-09-02 07:52:00,69.0,65.0,-100.00,North,10,-999.0,0.0,86,-99.99,,,-99.99,,2013-09-02 14:52:00,
2013-09-02 09:24:00,79.0,68.0,-100.00,SE,132,-999.0,3.0,69,-99.99,,,-99.99,,2013-09-02 16:24:00,
2013-09-02 10:52:00,86.0,70.0,-100.00,South,184,-999.0,8.0,59,-99.99,,,0.00,,2013-09-02 17:52:00,
2013-09-02 11:13:00,85.0,70.0,-100.00,WSW,241,-999.0,8.0,61,-99.99,,,-99.99,,2013-09-02 18:13:00,
2013-09-02 11:22:00,85.0,70.0,-100.00,WSW,241,-999.0,8.0,61,-99.99,,,-99.99,,2013-09-02 18:22:00,
2013-09-02 11:42:00,87.0,70.0,-100.00,South,177,-999.0,8.0,57,-99.99,,,-99.99,,2013-09-02 18:42:00,
2013-09-02 11:52:00,87.0,70.0,-100.00,South,177,-999.0,8.0,57,-99.99,,,-99.99,,2013-09-02 18:52:00,
2013-09-02 12:12:00,85.0,70.0,-100.00,West,269,-999.0,7.0,60,-99.99,,,-99.99,,2013-09-02 19:12:00,
2013-09-02 12:22:00,85.0,70.0,-100.00,West,269,-999.0,7.0,60,-99.99,,,-99.99,,2013-09-02 19:22:00,
2013-09-02 12:42:00,85.0,69.0,-100.00,West,267,-999.0,6.0,59,-99.99,,,-99.99,,2013-09-02 19:42:00,
2013-09-02 12:52:00,85.0,69.0,-100.00,West,267,-999.0,6.0,59,-99.99,,,-99.99,,2013-09-02 19:52:00,
2013-09-02 13:12:00,85.0,69.0,-100.00,West,275,-999.0,7.0,59,-99.99,,,-99.99,,2013-09-02 20:12:00,
2013-09-02 13:22:00,85.0,69.0,-100.00,West,275,-999.0,7.0,59,-99.99,,,-99.99,,2013-09-02 20:22:00,
2013-09-02 13:42:00,85.0,69.0,-100.00,WNW,282,-999.0,7.0,58,-99.99,,,-99.99,,2013-09-02 20:42:00,
2013-09-02 13:52:00,85.0,69.0,-100.00,WNW,282,-999.0,9.0,58,-99.99,,,-99.99,,2013-09-02 20:52:00,
2013-09-02 14:23:00,87.0,69.0,-100.00,WSW,256,-999.0,9.0,56,-99.99,,,-99.99,,2013-09-02 21:23:00,
2013-09-02 14:44:00,85.0,69.0,-100.00,WNW,291,-999.0,8.0,58,-99.99,,,-99.99,,2013-09-02 21:44:00,
2013-09-02 14:55:00,85.0,69.0,-100.00,WNW,291,-999.0,8.0,58,-99.99,,,-99.99,,2013-09-02 21:55:00,
2013-09-02 15:43:00,87.0,67.0,-100.00,West,265,-999.0,8.0,52,-99.99,,,-99.99,,2013-09-02 22:43:00,
2013-09-02 15:54:00,87.0,67.0,-100.00,West,265,-999.0,8.0,52,-99.99,,,-99.99,,2013-09-02 22:54:00,
2013-09-02 16:12:00,86.0,67.0,-100.00,West,260,-999.0,8.0,53,-99.99,,,-99.99,,2013-09-02 23:12:00,
2013-09-02 16:22:00,86.0,67.0,-100.00,West,260,-999.0,8.0,53,-99.99,,,-99.99,,2013-09-02 23:22:00,
2013-09-02 16:42:00,85.0,67.0,-100.00,West,260,-999.0,9.0,55,-99.99,,,-99.99,,2013-09-02 23:42:00,
2013-09-02 16:53:00,85.0,67.0,-100.00,West,260,-999.0,9.0,55,-99.99,,,-99.99,,2013-09-02 23:53:00,
2013-09-02 17:11:00,86.0,66.0,-100.00,West,271,-999.0,-999.0,52,-99.99,,,-99.99,,2013-09-03 00:11:00,
2013-09-02 17:21:00,86.0,66.0,-100.00,West,271,-999.0,7.0,52,-99.99,,,-99.99,,2013-09-03 00:21:00,
2013-09-02 19:12:00,80.0,63.0,-100.00,SSE,149,-999.0,1.0,57,-99.99,,,-99.99,,2013-09-03 02:12:00,
2013-09-02 19:21:00,80.0,63.0,-100.00,SSE,149,-999.0,1.0,57,-99.99,,,-99.99,,2013-09-03 02:21:00,
2013-09-02 19:42:00,80.0,63.0,-100.00,West,261,-999.0,-999.0,57,-99.99,,,-99.99,,2013-09-03 02:42:00,
2013-09-02 19:52:00,80.0,63.0,-100.00,West,261,-999.0,1.0,57,-99.99,,,-99.99,,2013-09-03 02:52:00,
2013-09-02 20:11:00,78.0,64.0,-100.00,West,271,-999.0,1.0,63,-99.99,,,-99.99,,2013-09-03 03:11:00,
2013-09-02 20:23:00,78.0,64.0,-100.00,West,271,-999.0,1.0,63,-99.99,,,-99.99,,2013-09-03 03:23:00,
2013-09-02 20:45:00,76.0,66.0,-100.00,West,273,-999.0,1.0,72,-99.99,,,-99.99,,2013-09-03 03:45:00,
2013-09-02 20:55:00,76.0,66.0,-100.00,West,273,-999.0,1.0,72,-99.99,,,-99.99,,2013-09-03 03:55:00,
2013-09-02 21:13:00,75.0,66.0,-100.00,West,276,-999.0,0.0,73,-99.99,,,-99.99,,2013-09-03 04:13:00,
2013-09-02 21:24:00,75.0,66.0,-100.00,West,276,-999.0,0.0,73,-99.99,,,-99.99,,2013-09-03 04:24:00,
2013-09-02 21:43:00,75.0,61.0,-100.00,West,276,-999.0,0.0,62,-99.99,,,-99.99,,2013-09-03 04:43:00,
2013-09-02 21:53:00,75.0,61.0,-100.00,West,276,-999.0,0.0,62,-99.99,,,-99.99,,2013-09-03 04:53:00,
2013-09-02 22:12:00,76.0,60.0,-100.00,NW,321,-999.0,0.0,58,-99.99,,,-99.99,,2013-09-03 05:12:00,
2013-09-02 22:23:00,76.0,60.0,-100.00,NW,321,-999.0,0.0,58,-99.99,,,-99.99,,2013-09-03 05:23:00,
2013-09-02 22:43:00,75.0,60.0,-100.00,NW,321,-999.0,0.0,60,-99.99,,,0.00,,2013-09-03 05:43:00,
2013-09-02 22:52:00,75.0,60.0,-100.00,NW,321,-999.0,0.0,60,-99.99,,,0.00,,2013-09-03 05:52:00,
2013-09-02 23:12:00,73.0,58.0,-100.00,NNW,339,-999.0,0.0,59,-99.99,,,-99.99,,2013-09-03 06:12:00,
2013-09-02 23:22:00,73.0,58.0,-100.00,NNW,339,-999.0,0.0,59,-99.99,,,-99.99,,2013-09-03 06:22:00,
2013-09-02 23:43:00,73.0,58.0,-100.00,NNW,339,-999.0,0.0,59,-99.99,,,-99.99,,2013-09-03 06:43:00,
2013-09-02 23:52:00,73.0,58.0,-100.00,NNW,339,-999.0,0.0,59,-99.99,,,-99.99,,2013-09-03 06:52:00,